Time;durP1;ratioP1;P1;durP2;ratioP2;P2;SDS_P1;SDS_P2;PMS_P1;PMS_P2;Temp;Humidity;BMP_temperature;BMP_pressure;BME280_temperature;BME280_humidity;BME280_pressure;Samples;Min_cycle;Max_cycle;Signal;HPM_P1;HPM_P2
2023/03/02 00:00:33;;;;;;;87.70;30.63;;;;;;;;;;12819644;19;20362;-67
2023/03/02 00:11:04;;;;;;;;;;;;;;;;;;12816701;19;20434;-68
2023/03/02 00:15:57;;;;;;;56.92;22.13;;;;;;;;;;12818780;19;20289;-68
2023/03/02 00:21:09;;;;;;;56.67;22.92;;;;;;;;;;12819436;19;20010;-68
2023/03/02 00:25:44;;;;;;;64.82;24.23;;;;;;;;;;12819040;19;20006;-67
2023/03/02 00:30:42;;;;;;;58.53;23.70;;;;;;;;;;12818245;19;20485;-68
2023/03/02 00:41:38;;;;;;;57.47;22.75;;;;;;;;;;12825704;19;20014;-67
2023/03/02 00:46:32;;;;;;;52.97;22.92;;;;;;;;;;12817414;19;20416;-68
2023/03/02 00:50:54;;;;;;;48.50;22.90;;;;;;;;;;12818513;19;20484;-67
2023/03/02 00:55:51;;;;;;;56.28;24.33;;;;;;;;;;12819686;19;20338;-67
2023/03/02 01:00:44;;;;;;;58.92;25.70;;;;;;;;;;12814861;19;20299;-68
2023/03/02 01:05:34;;;;;;;53.83;21.92;;;;;;;;;;12819696;19;20043;-68
2023/03/02 01:11:10;;;;;;;60.88;22.00;;;;;;;;;;12817957;19;20086;-67
2023/03/02 01:16:05;;;;;;;46.63;21.30;;;;;;;;;;12713838;19;2004727;-68
2023/03/02 01:21:07;;;;;;;49.90;18.73;;;;;;;;;;12813871;19;20422;-68
2023/03/02 01:31:35;;;;;;;51.13;17.40;;;;;;;;;;12820008;19;20413;-67
2023/03/02 01:36:33;;;;;;;44.58;17.75;;;;;;;;;;12821127;19;20429;-67
2023/03/02 01:41:33;;;;;;;45.42;17.63;;;;;;;;;;12823320;19;20382;-67
2023/03/02 01:52:11;;;;;;;49.33;19.83;;;;;;;;;;12813903;19;20353;-68
2023/03/02 01:56:54;;;;;;;64.22;23.17;;;;;;;;;;12821054;19;20023;-68
2023/03/02 02:01:54;;;;;;;70.18;21.42;;;;;;;;;;12820236;19;20548;-68
2023/03/02 02:07:09;;;;;;;67.70;22.93;;;;;;;;;;12817940;19;20007;-69
2023/03/02 02:11:59;;;;;;;63.22;21.85;;;;;;;;;;12820601;19;20034;-68
2023/03/02 02:17:38;;;;;;;64.80;22.67;;;;;;;;;;12821445;19;20287;-68
2023/03/02 02:22:49;;;;;;;66.05;23.35;;;;;;;;;;12818932;19;20852;-68
2023/03/02 02:27:55;;;;;;;75.07;25.70;;;;;;;;;;12818882;19;20330;-68
2023/03/02 02:38:34;;;;;;;87.45;25.65;;;;;;;;;;12815348;19;20429;-68
2023/03/02 02:43:03;;;;;;;61.88;22.35;;;;;;;;;;12815773;19;20002;-68
2023/03/02 02:47:54;;;;;;;53.78;21.35;;;;;;;;;;12818390;19;20856;-68
2023/03/02 02:53:11;;;;;;;65.38;23.33;;;;;;;;;;12819689;19;20141;-68
2023/03/02 02:57:56;;;;;;;81.47;25.77;;;;;;;;;;12816027;19;20440;-67
2023/03/02 03:03:27;;;;;;;;;;;;;;;;;;12816835;19;20369;-68
2023/03/02 03:19:32;;;;;;;57.35;19.10;;;;;;;;;;12816541;19;20513;-69
2023/03/02 03:30:47;;;;;;;44.90;18.08;;;;;;;;;;12714751;19;2005426;-68
2023/03/02 03:35:42;;;;;;;41.75;19.02;;;;;;;;;;12815790;19;20014;-68
2023/03/02 03:41:09;;;;;;;49.50;18.98;;;;;;;;;;12817718;19;20106;-69
2023/03/02 03:47:09;;;;;;;46.17;19.02;;;;;;;;;;12816481;19;20393;-68
2023/03/02 03:52:10;;;;;;;38.30;16.63;;;;;;;;;;12827705;19;20775;-68
2023/03/02 03:57:06;;;;;;;39.63;15.37;;;;;;;;;;12828543;19;20485;-67
2023/03/02 04:02:31;;;;;;;46.03;19.00;;;;;;;;;;12827242;19;20002;-68
2023/03/02 04:07:00;;;;;;;62.38;25.27;;;;;;;;;;12827038;19;20463;-69
2023/03/02 04:12:08;;;;;;;95.45;34.45;;;;;;;;;;12823274;19;20349;-67
2023/03/02 04:17:05;;;;;;;140.63;45.78;;;;;;;;;;12828361;19;20524;-68
2023/03/02 04:22:14;;;;;;;218.88;67.53;;;;;;;;;;12819235;19;20420;-68
2023/03/02 04:26:51;;;;;;;149.75;47.30;;;;;;;;;;12825709;19;20020;-68
2023/03/02 04:32:04;;;;;;;135.45;46.72;;;;;;;;;;12826890;19;20018;-68
2023/03/02 04:37:00;;;;;;;115.38;30.02;;;;;;;;;;12824691;19;20321;-68
2023/03/02 04:41:47;;;;;;;69.72;22.50;;;;;;;;;;12823532;19;20303;-68
2023/03/02 04:52:12;;;;;;;59.78;21.40;;;;;;;;;;12823925;19;20111;-68
2023/03/02 04:57:10;;;;;;;57.08;18.60;;;;;;;;;;12816332;19;20022;-68
2023/03/02 05:01:52;;;;;;;41.17;16.80;;;;;;;;;;12813674;19;20420;-67
2023/03/02 05:18:09;;;;;;;50.35;21.50;;;;;;;;;;12813792;19;20501;-69
2023/03/02 05:29:40;;;;;;;127.85;47.70;;;;;;;;;;12818404;19;20448;-68
2023/03/02 05:34:49;;;;;;;127.35;44.65;;;;;;;;;;12821832;19;20449;-67
2023/03/02 05:44:43;;;;;;;143.52;56.03;;;;;;;;;;12817871;19;20686;-67
2023/03/02 05:49:30;;;;;;;58.53;26.13;;;;;;;;;;12820432;19;20366;-68
2023/03/02 05:54:06;;;;;;;41.90;18.13;;;;;;;;;;12821741;19;20437;-68
2023/03/02 05:59:03;;;;;;;41.55;17.58;;;;;;;;;;12822024;19;20759;-68
2023/03/02 06:04:44;;;;;;;45.13;19.20;;;;;;;;;;12817607;19;20325;-68
2023/03/02 06:09:31;;;;;;;35.15;17.35;;;;;;;;;;12816202;19;20007;-69
2023/03/02 06:14:02;;;;;;;35.90;16.87;;;;;;;;;;12819673;19;20333;-68
2023/03/02 06:24:36;;;;;;;39.22;17.00;;;;;;;;;;12819006;19;20305;-68
2023/03/02 06:29:07;;;;;;;42.25;16.88;;;;;;;;;;12817186;19;20087;-68
2023/03/02 06:39:45;;;;;;;44.92;18.02;;;;;;;;;;12813138;19;20464;-68
2023/03/02 06:44:37;;;;;;;57.05;19.23;;;;;;;;;;12817718;19;20492;-68
2023/03/02 06:49:05;;;;;;;44.08;20.42;;;;;;;;;;12818802;19;20447;-67
2023/03/02 06:54:03;;;;;;;51.92;21.08;;;;;;;;;;12821486;19;20454;-68
2023/03/02 06:59:13;;;;;;;46.67;21.27;;;;;;;;;;12808662;19;20429;-68
2023/03/02 07:04:06;;;;;;;72.15;28.27;;;;;;;;;;12808968;19;20346;-69
2023/03/02 07:09:59;;;;;;;63.25;28.42;;;;;;;;;;12812283;19;20549;-68
2023/03/02 07:15:33;;;;;;;49.03;19.45;;;;;;;;;;12709234;19;2005995;-69
2023/03/02 07:20:12;;;;;;;56.50;24.17;;;;;;;;;;12807914;19;20435;-67
2023/03/02 07:24:48;;;;;;;51.75;23.65;;;;;;;;;;12827312;19;20445;-68
2023/03/02 07:35:30;;;;;;;34.53;13.50;;;;;;;;;;12819158;19;20345;-67
2023/03/02 07:39:50;;;;;;;24.15;12.73;;;;;;;;;;12819829;19;20378;-67
2023/03/02 07:45:11;;;;;;;25.85;12.50;;;;;;;;;;12827451;19;20637;-67
2023/03/02 07:50:38;;;;;;;34.15;13.02;;;;;;;;;;12828263;19;20785;-67
2023/03/02 07:55:49;;;;;;;25.13;11.57;;;;;;;;;;12818874;19;20007;-68
2023/03/02 08:00:56;;;;;;;23.73;11.57;;;;;;;;;;12820072;19;20315;-67
2023/03/02 08:05:46;;;;;;;26.80;12.20;;;;;;;;;;12820064;19;20446;-68
2023/03/02 08:10:54;;;;;;;16.42;9.57;;;;;;;;;;12819313;19;20412;-68
2023/03/02 08:15:34;;;;;;;25.23;9.70;;;;;;;;;;12819729;19;20006;-68
2023/03/02 08:20:49;;;;;;;19.95;10.18;;;;;;;;;;12819282;19;20486;-68
2023/03/02 08:26:06;;;;;;;20.98;11.23;;;;;;;;;;12825952;19;20387;-68
2023/03/02 08:30:59;;;;;;;18.48;9.18;;;;;;;;;;12827267;19;20376;-68
2023/03/02 08:36:17;;;;;;;19.23;8.90;;;;;;;;;;12824993;19;20440;-68
2023/03/02 08:41:41;;;;;;;21.45;11.10;;;;;;;;;;12817939;19;20383;-68
2023/03/02 08:46:39;;;;;;;21.80;8.75;;;;;;;;;;12822332;19;20380;-68
2023/03/02 08:51:30;;;;;;;18.92;10.45;;;;;;;;;;12825627;19;20014;-68
2023/03/02 09:02:34;;;;;;;32.60;15.13;;;;;;;;;;12725119;19;2005276;-68
2023/03/02 09:07:34;;;;;;;24.42;11.38;;;;;;;;;;12824318;19;20463;-67
2023/03/02 09:12:41;;;;;;;24.90;10.65;;;;;;;;;;12823782;19;20043;-68
2023/03/02 09:17:45;;;;;;;34.15;14.30;;;;;;;;;;12815332;19;20417;-67
2023/03/02 09:22:08;;;;;;;18.58;9.15;;;;;;;;;;12816028;19;20376;-68
2023/03/02 09:27:11;;;;;;;21.48;8.85;;;;;;;;;;12823038;19;20125;-68
2023/03/02 09:32:36;;;;;;;15.43;8.23;;;;;;;;;;12814130;19;20788;-68
2023/03/02 09:37:37;;;;;;;16.25;7.93;;;;;;;;;;12822189;19;20481;-68
2023/03/02 09:43:01;;;;;;;22.38;9.38;;;;;;;;;;12823681;19;20414;-68
2023/03/02 09:48:56;;;;;;;25.27;11.77;;;;;;;;;;12822862;19;20322;-68
2023/03/02 09:54:12;;;;;;;23.80;10.30;;;;;;;;;;12721773;19;2005147;-68
2023/03/02 09:59:11;;;;;;;16.80;8.93;;;;;;;;;;12819279;19;20367;-68
2023/03/02 10:04:32;;;;;;;17.38;9.20;;;;;;;;;;12823556;19;20506;-67
2023/03/02 10:10:01;;;;;;;21.83;9.15;;;;;;;;;;12815467;19;20346;-68
2023/03/02 10:15:12;;;;;;;18.92;8.43;;;;;;;;;;12819966;19;20440;-68
2023/03/02 10:31:39;;;;;;;18.65;9.52;;;;;;;;;;12806714;19;20307;-68
2023/03/02 10:36:41;;;;;;;24.52;8.82;;;;;;;;;;12788808;19;20422;-68
2023/03/02 10:41:45;;;;;;;31.70;12.68;;;;;;;;;;12785296;19;20462;-68
2023/03/02 10:47:02;;;;;;;24.83;8.80;;;;;;;;;;12794859;19;20477;-68
2023/03/02 10:57:47;;;;;;;8.70;4.90;;;;;;;;;;12806988;19;20299;-69
2023/03/02 11:08:44;;;;;;;17.75;7.25;;;;;;;;;;12821437;19;20322;-68
2023/03/02 11:13:38;;;;;;;13.88;5.63;;;;;;;;;;12830283;19;20507;-69
2023/03/02 11:24:34;;;;;;;10.55;6.03;;;;;;;;;;12730946;19;2005667;-68
2023/03/02 11:35:22;;;;;;;11.45;5.45;;;;;;;;;;12823277;19;20002;-68
2023/03/02 11:40:29;;;;;;;13.63;5.90;;;;;;;;;;12822696;19;20263;-68
2023/03/02 11:45:48;;;;;;;14.38;6.13;;;;;;;;;;12827817;19;20329;-68
2023/03/02 11:56:45;;;;;;;11.23;6.00;;;;;;;;;;12820374;19;20379;-69
2023/03/02 12:01:37;;;;;;;14.32;7.72;;;;;;;;;;12827887;19;20386;-67
2023/03/02 12:06:38;;;;;;;8.68;4.55;;;;;;;;;;12824375;19;20287;-68
2023/03/02 12:12:17;;;;;;;13.07;5.15;;;;;;;;;;12828580;19;20301;-69
2023/03/02 12:16:52;;;;;;;;;;;;;;;;;;12825667;19;20010;-68
2023/03/02 12:22:04;;;;;;;13.52;6.35;;;;;;;;;;12825994;19;20304;-67
2023/03/02 12:33:01;;;;;;;10.52;4.53;;;;;;;;;;12826280;19;20025;-68
2023/03/02 12:38:50;;;;;;;7.85;4.22;;;;;;;;;;12815839;19;20556;-68
2023/03/02 12:44:26;;;;;;;8.93;5.25;;;;;;;;;;12819019;19;20518;-68
2023/03/02 12:54:43;;;;;;;11.57;5.25;;;;;;;;;;12816916;19;20314;-68
2023/03/02 13:06:24;;;;;;;8.68;4.80;;;;;;;;;;12815937;19;20493;-69
2023/03/02 13:11:02;;;;;;;11.02;5.63;;;;;;;;;;12816206;19;20569;-69
2023/03/02 13:16:10;;;;;;;13.93;6.60;;;;;;;;;;12825439;19;20382;-68
2023/03/02 13:20:45;;;;;;;12.50;7.13;;;;;;;;;;12823008;19;20534;-68
2023/03/02 13:25:30;;;;;;;11.98;6.35;;;;;;;;;;12822655;19;20366;-68
2023/03/02 13:36:38;;;;;;;12.50;6.63;;;;;;;;;;12713041;19;2005127;-68
2023/03/02 13:41:39;;;;;;;10.77;5.25;;;;;;;;;;12814917;19;20340;-68
2023/03/02 13:47:13;;;;;;;11.32;6.30;;;;;;;;;;12815231;19;20339;-69
2023/03/02 13:52:30;;;;;;;12.30;5.40;;;;;;;;;;12813058;19;20645;-69
2023/03/02 13:57:33;;;;;;;10.50;5.30;;;;;;;;;;12812656;19;19999;-69
2023/03/02 14:08:32;;;;;;;14.80;6.60;;;;;;;;;;12712023;19;2005073;-69
2023/03/02 14:13:56;;;;;;;10.48;5.47;;;;;;;;;;12813202;19;20429;-69
2023/03/02 14:18:48;;;;;;;19.33;8.23;;;;;;;;;;12814566;19;20333;-68
2023/03/02 14:23:59;;;;;;;10.02;5.70;;;;;;;;;;12818429;19;20010;-69
2023/03/02 14:29:32;;;;;;;11.32;4.95;;;;;;;;;;12820106;19;20011;-70
2023/03/02 14:33:59;;;;;;;9.50;5.70;;;;;;;;;;12821673;19;20302;-69
2023/03/02 14:45:02;;;;;;;32.05;12.23;;;;;;;;;;12810515;19;20469;-68
2023/03/02 14:49:42;;;;;;;20.58;8.45;;;;;;;;;;12811133;19;20873;-69
2023/03/02 14:55:10;;;;;;;24.50;11.20;;;;;;;;;;12817354;19;20306;-68
2023/03/02 15:00:30;;;;;;;35.25;12.57;;;;;;;;;;12815202;19;20379;-68
2023/03/02 15:05:01;;;;;;;25.17;11.38;;;;;;;;;;12812314;19;20465;-69
2023/03/02 15:15:42;;;;;;;15.57;6.88;;;;;;;;;;12810665;19;20457;-70
2023/03/02 15:20:32;;;;;;;18.15;8.98;;;;;;;;;;12807863;19;20388;-69
2023/03/02 15:25:04;;;;;;;15.10;6.53;;;;;;;;;;12818068;19;20477;-69
2023/03/02 15:29:53;;;;;;;29.85;10.55;;;;;;;;;;12809255;19;20369;-69
2023/03/02 15:34:39;;;;;;;41.60;12.30;;;;;;;;;;12810805;19;20317;-68
2023/03/02 15:39:32;;;;;;;26.63;10.05;;;;;;;;;;12813709;19;20015;-68
2023/03/02 15:43:53;;;;;;;41.60;15.02;;;;;;;;;;12826389;19;20456;-68
2023/03/02 15:54:11;;;;;;;117.50;28.25;;;;;;;;;;12827157;19;20441;-69
2023/03/02 15:59:59;;;;;;;60.03;19.75;;;;;;;;;;12825504;19;20463;-68
2023/03/02 16:05:04;;;;;;;47.47;18.40;;;;;;;;;;12817013;19;20401;-68
2023/03/02 16:10:15;;;;;;;45.67;14.32;;;;;;;;;;12818742;19;20038;-68
2023/03/02 16:14:51;;;;;;;29.23;12.00;;;;;;;;;;12820988;19;20015;-68
2023/03/02 16:19:32;;;;;;;49.60;16.17;;;;;;;;;;12821916;19;20835;-68
2023/03/02 16:24:54;;;;;;;64.47;19.17;;;;;;;;;;12818762;19;20027;-68
2023/03/02 16:29:34;;;;;;;63.45;20.65;;;;;;;;;;12818233;19;20516;-69
2023/03/02 16:39:41;;;;;;;94.50;25.60;;;;;;;;;;12816300;19;20441;-67
2023/03/02 16:44:29;;;;;;;93.80;27.73;;;;;;;;;;12817583;19;20436;-68
2023/03/02 16:48:59;;;;;;;108.38;28.77;;;;;;;;;;12827391;19;20394;-68
2023/03/02 16:54:32;;;;;;;102.35;29.55;;;;;;;;;;12815849;19;20535;-68
2023/03/02 16:59:06;;;;;;;105.53;34.60;;;;;;;;;;12816754;19;20465;-68
2023/03/02 17:03:29;;;;;;;96.88;30.95;;;;;;;;;;12822387;19;20469;-69
2023/03/02 17:14:03;;;;;;;70.57;26.70;;;;;;;;;;12722679;19;2004996;-68
2023/03/02 17:19:10;;;;;;;90.10;34.80;;;;;;;;;;12822283;19;20636;-68
2023/03/02 17:24:36;;;;;;;68.90;29.63;;;;;;;;;;12824847;19;20431;-68
2023/03/02 17:29:53;;;;;;;84.05;30.98;;;;;;;;;;12824460;19;20434;-67
2023/03/02 17:34:31;;;;;;;89.40;32.55;;;;;;;;;;12821393;19;20302;-68
2023/03/02 17:38:59;;;;;;;104.35;42.97;;;;;;;;;;12821475;19;20318;-67
2023/03/02 17:49:45;;;;;;;74.20;34.00;;;;;;;;;;12820850;19;20306;-68
2023/03/02 17:54:30;;;;;;;49.92;23.50;;;;;;;;;;12821881;19;20386;-68
2023/03/02 18:05:21;;;;;;;110.40;38.85;;;;;;;;;;12706159;19;2005111;-68
2023/03/02 18:10:29;;;;;;;63.95;25.25;;;;;;;;;;12818932;19;20338;-68
2023/03/02 18:15:11;;;;;;;120.90;36.13;;;;;;;;;;12819959;19;20320;-68
2023/03/02 18:25:29;;;;;;;271.08;63.40;;;;;;;;;;12811383;19;20571;-67
2023/03/02 18:30:41;;;;;;;690.40;193.25;;;;;;;;;;12811374;19;20298;-68
2023/03/02 18:35:41;;;;;;;617.85;170.95;;;;;;;;;;12813767;19;20449;-69
2023/03/02 18:40:35;;;;;;;316.52;74.65;;;;;;;;;;12811215;19;20009;-67
2023/03/02 18:45:34;;;;;;;99.65;35.75;;;;;;;;;;12814107;19;20587;-68
2023/03/02 18:51:07;;;;;;;114.75;35.70;;;;;;;;;;12812913;19;20317;-68
2023/03/02 18:56:42;;;;;;;60.33;21.77;;;;;;;;;;12810051;19;20410;-68
2023/03/02 19:01:40;;;;;;;49.25;19.88;;;;;;;;;;12810209;19;19999;-68
2023/03/02 19:05:58;;;;;;;50.17;20.37;;;;;;;;;;12811570;19;20026;-69
2023/03/02 19:10:50;;;;;;;56.33;20.02;;;;;;;;;;12810557;19;21065;-68
2023/03/02 19:16:34;;;;;;;61.15;22.08;;;;;;;;;;12810696;19;20037;-68
2023/03/02 19:21:08;;;;;;;64.85;22.67;;;;;;;;;;12825642;19;20046;-67
2023/03/02 19:26:50;;;;;;;71.22;25.50;;;;;;;;;;12830202;19;20437;-68
2023/03/02 19:32:52;;;;;;;109.13;32.42;;;;;;;;;;12721033;19;2005531;-66
2023/03/02 19:38:12;;;;;;;108.90;32.33;;;;;;;;;;12819785;19;20333;-68
2023/03/02 19:43:21;;;;;;;93.40;30.40;;;;;;;;;;12823097;19;20728;-67
2023/03/02 19:54:00;;;;;;;72.38;23.20;;;;;;;;;;12820702;19;21105;-67
2023/03/02 19:58:52;;;;;;;55.20;22.20;;;;;;;;;;12820979;19;20391;-67
2023/03/02 20:08:21;;;;;;;58.72;22.50;;;;;;;;;;12819401;19;20007;-68
2023/03/02 20:12:53;;;;;;;70.60;25.73;;;;;;;;;;12823734;19;20007;-68
2023/03/02 20:17:34;;;;;;;83.55;29.10;;;;;;;;;;12826482;19;20033;-67
2023/03/02 20:23:10;;;;;;;89.70;27.27;;;;;;;;;;12827217;19;20359;-68
2023/03/02 20:28:36;;;;;;;94.28;29.90;;;;;;;;;;12821416;19;20429;-68
2023/03/02 20:33:32;;;;;;;122.78;33.10;;;;;;;;;;12825463;19;20345;-68
2023/03/02 20:37:59;;;;;;;94.65;28.40;;;;;;;;;;12823989;19;20324;-68
2023/03/02 20:48:12;;;;;;;90.97;30.77;;;;;;;;;;12824547;19;20574;-68
2023/03/02 20:53:06;;;;;;;283.20;63.47;;;;;;;;;;12817654;19;20010;-68
2023/03/02 20:58:43;;;;;;;152.55;39.67;;;;;;;;;;12818106;19;20727;-68
2023/03/02 21:03:32;;;;;;;91.28;30.45;;;;;;;;;;12816222;19;20376;-67
2023/03/02 21:08:13;;;;;;;83.15;30.08;;;;;;;;;;12816287;19;20086;-68
2023/03/02 21:19:12;;;;;;;115.60;31.52;;;;;;;;;;12713425;19;2005019;-68
2023/03/02 21:23:55;;;;;;;115.40;30.95;;;;;;;;;;12815787;19;20331;-68
2023/03/02 21:34:48;;;;;;;44.15;21.35;;;;;;;;;;12815364;19;20350;-67
2023/03/02 21:39:36;;;;;;;81.05;27.08;;;;;;;;;;12816371;19;20023;-67
2023/03/02 21:44:49;;;;;;;64.60;24.20;;;;;;;;;;12817703;19;19999;-68
2023/03/02 21:50:00;;;;;;;33.72;16.80;;;;;;;;;;12814657;19;20547;-68
2023/03/02 22:00:35;;;;;;;82.38;28.02;;;;;;;;;;12814184;19;20438;-69
2023/03/02 22:05:54;;;;;;;103.03;29.17;;;;;;;;;;12814705;19;20305;-67
2023/03/02 22:10:59;;;;;;;67.20;24.33;;;;;;;;;;12712047;19;2005063;-67
2023/03/02 22:15:28;;;;;;;64.30;23.13;;;;;;;;;;12815809;19;20433;-68
2023/03/02 22:19:57;;;;;;;59.07;22.67;;;;;;;;;;12811640;19;20392;-68
2023/03/02 22:24:52;;;;;;;52.40;23.00;;;;;;;;;;12819310;19;20736;-67
2023/03/02 22:30:32;;;;;;;63.08;21.48;;;;;;;;;;12820798;19;20727;-68
2023/03/02 22:41:46;;;;;;;;;;;;;;;;;;12811926;19;20323;-67
2023/03/02 22:46:31;;;;;;;45.65;18.98;;;;;;;;;;12811269;19;20385;-68
2023/03/02 22:51:29;;;;;;;40.80;17.30;;;;;;;;;;12813344;19;20447;-68
2023/03/02 23:08:31;;;;;;;61.20;20.83;;;;;;;;;;12822746;19;20436;-68
2023/03/02 23:13:07;;;;;;;52.33;19.45;;;;;;;;;;12823449;19;20382;-68
2023/03/02 23:18:38;;;;;;;45.60;19.20;;;;;;;;;;12828631;19;20310;-68
2023/03/02 23:34:58;;;;;;;44.58;18.35;;;;;;;;;;12829507;19;20358;-68
2023/03/02 23:40:55;;;;;;;42.65;17.75;;;;;;;;;;12829895;19;20417;-67
2023/03/02 23:51:08;;;;;;;46.60;17.80;;;;;;;;;;12821711;19;20368;-67
2023/03/02 23:56:52;;;;;;;43.90;16.63;;;;;;;;;;12830334;19;20015;-67
